sensor_id;sensor_type;location;lat;lon;timestamp;P1;durP1;ratioP1;P2;durP2;ratioP2
13969;SDS011;7057;49.984;8.404;2024-03-23T00:55:42;22.13;;;18.43;;
13969;SDS011;7057;49.984;8.404;2024-03-23T00:58:08;21.33;;;18.77;;
13969;SDS011;7057;49.984;8.404;2024-03-23T01:00:35;23.50;;;17.97;;
13969;SDS011;7057;49.984;8.404;2024-03-23T01:03:01;22.30;;;17.50;;
13969;SDS011;7057;49.984;8.404;2024-03-23T01:05:27;22.20;;;17.57;;
13969;SDS011;7057;49.984;8.404;2024-03-23T01:07:53;20.43;;;18.17;;
13969;SDS011;7057;49.984;8.404;2024-03-23T01:10:19;19.93;;;17.63;;
13969;SDS011;7057;49.984;8.404;2024-03-23T01:12:45;22.97;;;17.50;;
13969;SDS011;7057;49.984;8.404;2024-03-23T01:15:11;22.17;;;17.87;;
13969;SDS011;7057;49.984;8.404;2024-03-23T01:17:37;19.73;;;17.47;;
13969;SDS011;7057;49.984;8.404;2024-03-23T01:20:03;23.00;;;18.40;;
13969;SDS011;7057;49.984;8.404;2024-03-23T01:22:30;19.77;;;17.33;;
13969;SDS011;7057;49.984;8.404;2024-03-23T01:24:56;22.20;;;17.57;;
13969;SDS011;7057;49.984;8.404;2024-03-23T01:27:22;23.63;;;17.77;;
13969;SDS011;7057;49.984;8.404;2024-03-23T01:29:48;25.97;;;20.07;;
13969;SDS011;7057;49.984;8.404;2024-03-23T01:32:14;23.00;;;17.80;;
13969;SDS011;7057;49.984;8.404;2024-03-23T01:34:40;21.97;;;17.43;;
13969;SDS011;7057;49.984;8.404;2024-03-23T01:37:06;21.50;;;18.57;;
13969;SDS011;7057;49.984;8.404;2024-03-23T01:39:32;24.00;;;18.73;;
13969;SDS011;7057;49.984;8.404;2024-03-23T01:41:58;23.53;;;18.53;;
13969;SDS011;7057;49.984;8.404;2024-03-23T01:44:24;21.63;;;17.57;;
13969;SDS011;7057;49.984;8.404;2024-03-23T01:46:50;23.27;;;18.20;;
13969;SDS011;7057;49.984;8.404;2024-03-23T01:49:16;20.67;;;18.47;;
13969;SDS011;7057;49.984;8.404;2024-03-23T01:51:43;21.50;;;18.00;;
13969;SDS011;7057;49.984;8.404;2024-03-23T01:54:09;19.13;;;17.23;;
13969;SDS011;7057;49.984;8.404;2024-03-23T01:56:36;20.80;;;18.33;;
13969;SDS011;7057;49.984;8.404;2024-03-23T01:59:02;22.83;;;17.73;;
13969;SDS011;7057;49.984;8.404;2024-03-23T02:01:28;22.43;;;17.77;;
13969;SDS011;7057;49.984;8.404;2024-03-23T02:03:55;20.00;;;17.90;;
13969;SDS011;7057;49.984;8.404;2024-03-23T02:06:21;18.73;;;16.70;;
13969;SDS011;7057;49.984;8.404;2024-03-23T02:08:48;20.00;;;17.13;;
13969;SDS011;7057;49.984;8.404;2024-03-23T02:11:14;21.83;;;17.73;;
13969;SDS011;7057;49.984;8.404;2024-03-23T02:13:40;22.17;;;18.23;;
13969;SDS011;7057;49.984;8.404;2024-03-23T02:16:06;21.30;;;18.10;;
13969;SDS011;7057;49.984;8.404;2024-03-23T02:18:32;22.43;;;19.27;;
13969;SDS011;7057;49.984;8.404;2024-03-23T02:20:58;26.10;;;20.57;;
13969;SDS011;7057;49.984;8.404;2024-03-23T02:23:24;23.07;;;20.33;;
13969;SDS011;7057;49.984;8.404;2024-03-23T02:25:50;26.80;;;21.20;;
13969;SDS011;7057;49.984;8.404;2024-03-23T02:28:18;26.40;;;22.57;;
13969;SDS011;7057;49.984;8.404;2024-03-23T02:30:44;28.77;;;22.47;;
13969;SDS011;7057;49.984;8.404;2024-03-23T02:33:10;29.40;;;23.23;;
13969;SDS011;7057;49.984;8.404;2024-03-23T02:35:36;30.73;;;23.43;;
13969;SDS011;7057;49.984;8.404;2024-03-23T02:38:02;33.17;;;24.10;;
13969;SDS011;7057;49.984;8.404;2024-03-23T02:40:28;31.90;;;24.77;;
13969;SDS011;7057;49.984;8.404;2024-03-23T02:42:54;33.60;;;25.97;;
13969;SDS011;7057;49.984;8.404;2024-03-23T02:45:21;34.30;;;25.27;;
13969;SDS011;7057;49.984;8.404;2024-03-23T02:47:47;34.30;;;25.50;;
13969;SDS011;7057;49.984;8.404;2024-03-23T02:50:16;36.03;;;26.37;;
13969;SDS011;7057;49.984;8.404;2024-03-23T02:52:42;35.67;;;27.13;;
13969;SDS011;7057;49.984;8.404;2024-03-23T02:55:08;32.33;;;25.40;;
13969;SDS011;7057;49.984;8.404;2024-03-23T02:57:34;34.73;;;26.27;;
13969;SDS011;7057;49.984;8.404;2024-03-23T03:00:00;39.80;;;27.87;;
13969;SDS011;7057;49.984;8.404;2024-03-23T03:02:27;35.70;;;26.87;;
13969;SDS011;7057;49.984;8.404;2024-03-23T03:04:53;36.93;;;27.00;;
13969;SDS011;7057;49.984;8.404;2024-03-23T03:07:19;39.57;;;26.70;;
13969;SDS011;7057;49.984;8.404;2024-03-23T03:09:45;38.67;;;26.37;;
13969;SDS011;7057;49.984;8.404;2024-03-23T03:12:11;39.40;;;28.20;;
13969;SDS011;7057;49.984;8.404;2024-03-23T03:14:37;38.13;;;27.43;;
13969;SDS011;7057;49.984;8.404;2024-03-23T03:17:03;39.23;;;28.63;;
13969;SDS011;7057;49.984;8.404;2024-03-23T03:19:29;35.70;;;26.87;;
13969;SDS011;7057;49.984;8.404;2024-03-23T03:21:55;38.73;;;25.77;;
13969;SDS011;7057;49.984;8.404;2024-03-23T03:24:21;38.37;;;27.27;;
13969;SDS011;7057;49.984;8.404;2024-03-23T03:26:47;38.33;;;26.80;;
13969;SDS011;7057;49.984;8.404;2024-03-23T03:29:14;35.10;;;25.63;;
13969;SDS011;7057;49.984;8.404;2024-03-23T03:31:41;34.63;;;25.83;;
13969;SDS011;7057;49.984;8.404;2024-03-23T03:34:07;35.43;;;25.07;;
13969;SDS011;7057;49.984;8.404;2024-03-23T03:36:33;34.37;;;25.67;;
13969;SDS011;7057;49.984;8.404;2024-03-23T03:38:59;33.27;;;23.93;;
13969;SDS011;7057;49.984;8.404;2024-03-23T03:41:25;32.93;;;23.80;;
13969;SDS011;7057;49.984;8.404;2024-03-23T03:43:51;32.87;;;23.13;;
13969;SDS011;7057;49.984;8.404;2024-03-23T03:46:17;30.93;;;23.30;;
13969;SDS011;7057;49.984;8.404;2024-03-23T03:48:43;32.83;;;23.27;;
13969;SDS011;7057;49.984;8.404;2024-03-23T03:51:11;32.07;;;23.57;;
13969;SDS011;7057;49.984;8.404;2024-03-23T03:53:37;30.20;;;22.83;;
13969;SDS011;7057;49.984;8.404;2024-03-23T03:56:03;29.13;;;22.83;;
13969;SDS011;7057;49.984;8.404;2024-03-23T03:58:29;27.60;;;21.57;;
13969;SDS011;7057;49.984;8.404;2024-03-23T04:00:55;31.57;;;23.47;;
13969;SDS011;7057;49.984;8.404;2024-03-23T04:03:21;31.17;;;22.93;;
13969;SDS011;7057;49.984;8.404;2024-03-23T04:05:51;24.93;;;19.30;;
13969;SDS011;7057;49.984;8.404;2024-03-23T04:08:17;27.20;;;20.97;;
13969;SDS011;7057;49.984;8.404;2024-03-23T04:10:43;27.00;;;19.30;;
13969;SDS011;7057;49.984;8.404;2024-03-23T04:13:10;25.97;;;17.33;;
13969;SDS011;7057;49.984;8.404;2024-03-23T04:15:36;19.37;;;15.37;;
13969;SDS011;7057;49.984;8.404;2024-03-23T04:18:02;13.80;;;10.77;;
13969;SDS011;7057;49.984;8.404;2024-03-23T04:20:28;6.43;;;5.00;;
13969;SDS011;7057;49.984;8.404;2024-03-23T04:22:54;6.40;;;4.90;;
13969;SDS011;7057;49.984;8.404;2024-03-23T04:25:20;4.43;;;3.23;;
13969;SDS011;7057;49.984;8.404;2024-03-23T04:27:46;2.83;;;2.63;;
13969;SDS011;7057;49.984;8.404;2024-03-23T04:30:12;3.40;;;2.87;;
13969;SDS011;7057;49.984;8.404;2024-03-23T04:32:38;2.57;;;2.30;;
13969;SDS011;7057;49.984;8.404;2024-03-23T04:35:05;2.37;;;2.03;;
13969;SDS011;7057;49.984;8.404;2024-03-23T04:37:33;4.17;;;2.03;;
13969;SDS011;7057;49.984;8.404;2024-03-23T04:40:02;2.43;;;1.90;;
13969;SDS011;7057;49.984;8.404;2024-03-23T04:42:29;2.20;;;1.93;;
13969;SDS011;7057;49.984;8.404;2024-03-23T04:44:55;5.27;;;2.20;;
13969;SDS011;7057;49.984;8.404;2024-03-23T04:47:22;2.47;;;1.87;;
13969;SDS011;7057;49.984;8.404;2024-03-23T04:49:48;2.63;;;2.13;;
13969;SDS011;7057;49.984;8.404;2024-03-23T04:52:14;2.87;;;2.10;;
13969;SDS011;7057;49.984;8.404;2024-03-23T04:54:40;1.80;;;1.70;;
13969;SDS011;7057;49.984;8.404;2024-03-23T04:57:06;3.83;;;1.97;;
13969;SDS011;7057;49.984;8.404;2024-03-23T04:59:32;2.33;;;2.13;;
13969;SDS011;7057;49.984;8.404;2024-03-23T05:01:58;3.80;;;2.20;;
13969;SDS011;7057;49.984;8.404;2024-03-23T05:04:25;1.97;;;1.73;;
13969;SDS011;7057;49.984;8.404;2024-03-23T05:06:51;1.97;;;1.87;;
13969;SDS011;7057;49.984;8.404;2024-03-23T05:09:17;1.80;;;1.70;;
13969;SDS011;7057;49.984;8.404;2024-03-23T05:11:43;1.83;;;1.70;;
13969;SDS011;7057;49.984;8.404;2024-03-23T05:14:09;2.37;;;2.17;;
13969;SDS011;7057;49.984;8.404;2024-03-23T05:16:35;3.20;;;2.20;;
13969;SDS011;7057;49.984;8.404;2024-03-23T05:19:01;2.30;;;2.10;;
13969;SDS011;7057;49.984;8.404;2024-03-23T05:21:27;4.90;;;2.20;;
13969;SDS011;7057;49.984;8.404;2024-03-23T05:23:53;2.57;;;2.20;;
13969;SDS011;7057;49.984;8.404;2024-03-23T05:26:19;2.40;;;2.20;;
13969;SDS011;7057;49.984;8.404;2024-03-23T05:28:45;2.40;;;2.20;;
13969;SDS011;7057;49.984;8.404;2024-03-23T05:31:11;2.60;;;2.40;;
13969;SDS011;7057;49.984;8.404;2024-03-23T05:33:37;3.03;;;2.70;;
13969;SDS011;7057;49.984;8.404;2024-03-23T05:36:03;3.53;;;2.97;;
13969;SDS011;7057;49.984;8.404;2024-03-23T05:38:30;3.97;;;2.60;;
13969;SDS011;7057;49.984;8.404;2024-03-23T05:40:56;2.90;;;2.70;;
13969;SDS011;7057;49.984;8.404;2024-03-23T05:43:22;3.73;;;3.37;;
13969;SDS011;7057;49.984;8.404;2024-03-23T05:45:54;4.10;;;3.20;;
13969;SDS011;7057;49.984;8.404;2024-03-23T05:48:20;3.07;;;2.87;;
13969;SDS011;7057;49.984;8.404;2024-03-23T05:50:47;3.77;;;3.00;;
13969;SDS011;7057;49.984;8.404;2024-03-23T05:53:14;2.13;;;1.80;;
13969;SDS011;7057;49.984;8.404;2024-03-23T05:55:40;4.30;;;2.80;;
13969;SDS011;7057;49.984;8.404;2024-03-23T05:58:06;2.40;;;2.20;;
13969;SDS011;7057;49.984;8.404;2024-03-23T06:00:32;2.87;;;2.20;;
13969;SDS011;7057;49.984;8.404;2024-03-23T06:02:58;2.20;;;2.00;;
13969;SDS011;7057;49.984;8.404;2024-03-23T06:05:24;2.13;;;1.93;;
13969;SDS011;7057;49.984;8.404;2024-03-23T06:07:50;2.47;;;2.27;;
13969;SDS011;7057;49.984;8.404;2024-03-23T06:10:16;2.10;;;1.90;;
13969;SDS011;7057;49.984;8.404;2024-03-23T06:12:42;2.77;;;1.90;;
13969;SDS011;7057;49.984;8.404;2024-03-23T06:15:08;1.80;;;1.70;;
13969;SDS011;7057;49.984;8.404;2024-03-23T06:17:38;1.97;;;1.80;;
13969;SDS011;7057;49.984;8.404;2024-03-23T06:20:04;1.87;;;1.70;;
13969;SDS011;7057;49.984;8.404;2024-03-23T06:22:35;1.70;;;1.60;;
13969;SDS011;7057;49.984;8.404;2024-03-23T06:25:01;1.63;;;1.30;;
13969;SDS011;7057;49.984;8.404;2024-03-23T06:27:27;1.50;;;1.40;;
13969;SDS011;7057;49.984;8.404;2024-03-23T06:29:53;1.80;;;1.50;;
13969;SDS011;7057;49.984;8.404;2024-03-23T06:32:18;1.50;;;1.40;;
13969;SDS011;7057;49.984;8.404;2024-03-23T06:34:44;1.27;;;1.17;;
13969;SDS011;7057;49.984;8.404;2024-03-23T06:37:11;1.33;;;1.13;;
13969;SDS011;7057;49.984;8.404;2024-03-23T06:39:37;1.83;;;1.07;;
13969;SDS011;7057;49.984;8.404;2024-03-23T06:42:03;1.30;;;1.20;;
13969;SDS011;7057;49.984;8.404;2024-03-23T06:44:29;1.00;;;0.90;;
13969;SDS011;7057;49.984;8.404;2024-03-23T06:46:55;1.30;;;1.20;;
13969;SDS011;7057;49.984;8.404;2024-03-23T06:49:22;1.10;;;1.10;;
13969;SDS011;7057;49.984;8.404;2024-03-23T06:51:48;1.13;;;1.00;;
13969;SDS011;7057;49.984;8.404;2024-03-23T06:54:14;1.37;;;1.20;;
13969;SDS011;7057;49.984;8.404;2024-03-23T06:56:41;1.50;;;1.20;;
13969;SDS011;7057;49.984;8.404;2024-03-23T06:59:07;2.73;;;1.53;;
13969;SDS011;7057;49.984;8.404;2024-03-23T07:01:33;1.80;;;1.30;;
13969;SDS011;7057;49.984;8.404;2024-03-23T07:04:00;2.50;;;1.57;;
13969;SDS011;7057;49.984;8.404;2024-03-23T07:06:26;3.23;;;1.70;;
13969;SDS011;7057;49.984;8.404;2024-03-23T07:08:52;2.97;;;1.73;;
13969;SDS011;7057;49.984;8.404;2024-03-23T07:11:19;3.40;;;1.40;;
13969;SDS011;7057;49.984;8.404;2024-03-23T07:13:45;3.63;;;1.70;;
13969;SDS011;7057;49.984;8.404;2024-03-23T07:16:12;5.53;;;2.10;;
13969;SDS011;7057;49.984;8.404;2024-03-23T07:18:38;3.93;;;1.90;;
13969;SDS011;7057;49.984;8.404;2024-03-23T07:21:04;5.50;;;2.43;;
13969;SDS011;7057;49.984;8.404;2024-03-23T07:23:32;4.07;;;2.00;;
13969;SDS011;7057;49.984;8.404;2024-03-23T07:25:58;3.30;;;2.00;;
13969;SDS011;7057;49.984;8.404;2024-03-23T07:28:24;6.87;;;2.13;;
13969;SDS011;7057;49.984;8.404;2024-03-23T07:31:03;3.77;;;2.03;;
13969;SDS011;7057;49.984;8.404;2024-03-23T07:33:29;5.47;;;2.40;;
13969;SDS011;7057;49.984;8.404;2024-03-23T07:35:55;6.60;;;3.33;;
13969;SDS011;7057;49.984;8.404;2024-03-23T07:38:21;7.20;;;3.30;;
13969;SDS011;7057;49.984;8.404;2024-03-23T07:40:48;7.93;;;4.13;;
13969;SDS011;7057;49.984;8.404;2024-03-23T07:43:21;7.87;;;3.77;;
13969;SDS011;7057;49.984;8.404;2024-03-23T07:45:53;6.10;;;3.57;;
13969;SDS011;7057;49.984;8.404;2024-03-23T07:48:20;5.97;;;3.10;;
13969;SDS011;7057;49.984;8.404;2024-03-23T07:51:02;4.23;;;3.00;;
13969;SDS011;7057;49.984;8.404;2024-03-23T07:53:29;5.60;;;3.43;;
13969;SDS011;7057;49.984;8.404;2024-03-23T07:55:58;4.17;;;3.20;;
13969;SDS011;7057;49.984;8.404;2024-03-23T07:58:28;4.20;;;3.23;;
13969;SDS011;7057;49.984;8.404;2024-03-23T08:00:54;3.97;;;3.37;;
13969;SDS011;7057;49.984;8.404;2024-03-23T08:03:21;5.83;;;3.70;;
13969;SDS011;7057;49.984;8.404;2024-03-23T08:05:47;5.73;;;3.50;;
13969;SDS011;7057;49.984;8.404;2024-03-23T08:08:13;6.50;;;3.67;;
13969;SDS011;7057;49.984;8.404;2024-03-23T08:10:51;6.23;;;3.67;;
13969;SDS011;7057;49.984;8.404;2024-03-23T08:13:19;8.87;;;4.33;;
13969;SDS011;7057;49.984;8.404;2024-03-23T08:15:45;5.67;;;3.27;;
13969;SDS011;7057;49.984;8.404;2024-03-23T08:18:12;7.87;;;3.80;;
13969;SDS011;7057;49.984;8.404;2024-03-23T08:20:40;8.60;;;3.87;;
13969;SDS011;7057;49.984;8.404;2024-03-23T08:23:06;8.00;;;4.00;;
13969;SDS011;7057;49.984;8.404;2024-03-23T08:25:32;6.93;;;4.40;;
13969;SDS011;7057;49.984;8.404;2024-03-23T08:27:59;6.87;;;4.43;;
13969;SDS011;7057;49.984;8.404;2024-03-23T08:30:25;5.73;;;4.20;;
13969;SDS011;7057;49.984;8.404;2024-03-23T08:32:51;8.17;;;4.23;;
13969;SDS011;7057;49.984;8.404;2024-03-23T08:35:17;10.50;;;4.30;;
13969;SDS011;7057;49.984;8.404;2024-03-23T08:37:43;5.53;;;3.70;;
13969;SDS011;7057;49.984;8.404;2024-03-23T08:40:09;10.33;;;4.53;;
13969;SDS011;7057;49.984;8.404;2024-03-23T08:42:35;7.33;;;3.87;;
13969;SDS011;7057;49.984;8.404;2024-03-23T08:45:01;11.00;;;4.40;;
13969;SDS011;7057;49.984;8.404;2024-03-23T08:47:27;8.20;;;4.10;;
13969;SDS011;7057;49.984;8.404;2024-03-23T08:49:53;8.67;;;3.80;;
13969;SDS011;7057;49.984;8.404;2024-03-23T08:52:20;7.73;;;4.10;;
13969;SDS011;7057;49.984;8.404;2024-03-23T08:54:48;10.33;;;3.93;;
13969;SDS011;7057;49.984;8.404;2024-03-23T08:57:14;8.27;;;4.30;;
13969;SDS011;7057;49.984;8.404;2024-03-23T08:59:40;9.90;;;4.33;;
13969;SDS011;7057;49.984;8.404;2024-03-23T09:02:06;10.77;;;4.27;;
13969;SDS011;7057;49.984;8.404;2024-03-23T09:04:32;10.70;;;4.57;;
13969;SDS011;7057;49.984;8.404;2024-03-23T09:06:58;12.43;;;4.87;;
13969;SDS011;7057;49.984;8.404;2024-03-23T09:09:25;7.27;;;3.67;;
13969;SDS011;7057;49.984;8.404;2024-03-23T09:11:51;10.40;;;4.40;;
13969;SDS011;7057;49.984;8.404;2024-03-23T09:14:16;7.87;;;4.07;;
13969;SDS011;7057;49.984;8.404;2024-03-23T09:16:44;8.10;;;4.30;;
13969;SDS011;7057;49.984;8.404;2024-03-23T09:19:10;8.67;;;4.20;;
13969;SDS011;7057;49.984;8.404;2024-03-23T09:21:36;7.87;;;3.90;;
13969;SDS011;7057;49.984;8.404;2024-03-23T09:24:01;7.97;;;3.30;;
13969;SDS011;7057;49.984;8.404;2024-03-23T09:26:28;10.17;;;3.57;;
13969;SDS011;7057;49.984;8.404;2024-03-23T09:28:54;9.90;;;3.97;;
13969;SDS011;7057;49.984;8.404;2024-03-23T09:31:21;7.97;;;3.37;;
13969;SDS011;7057;49.984;8.404;2024-03-23T09:33:47;7.63;;;3.13;;
13969;SDS011;7057;49.984;8.404;2024-03-23T09:36:13;7.30;;;2.70;;
13969;SDS011;7057;49.984;8.404;2024-03-23T09:38:40;9.03;;;2.80;;
13969;SDS011;7057;49.984;8.404;2024-03-23T09:41:07;11.23;;;2.73;;
13969;SDS011;7057;49.984;8.404;2024-03-23T09:43:34;6.40;;;2.83;;
13969;SDS011;7057;49.984;8.404;2024-03-23T09:46:01;8.83;;;3.20;;
13969;SDS011;7057;49.984;8.404;2024-03-23T09:48:27;9.13;;;2.80;;
13969;SDS011;7057;49.984;8.404;2024-03-23T09:50:53;7.50;;;2.97;;
13969;SDS011;7057;49.984;8.404;2024-03-23T09:53:19;6.57;;;2.70;;
13969;SDS011;7057;49.984;8.404;2024-03-23T09:55:47;6.37;;;2.30;;
13969;SDS011;7057;49.984;8.404;2024-03-23T09:58:15;7.03;;;2.90;;
13969;SDS011;7057;49.984;8.404;2024-03-23T10:00:42;7.80;;;2.90;;
13969;SDS011;7057;49.984;8.404;2024-03-23T10:03:08;10.87;;;3.13;;
13969;SDS011;7057;49.984;8.404;2024-03-23T10:05:36;9.43;;;3.23;;
13969;SDS011;7057;49.984;8.404;2024-03-23T10:10:43;10.33;;;2.70;;
13969;SDS011;7057;49.984;8.404;2024-03-23T10:13:10;10.23;;;2.63;;
13969;SDS011;7057;49.984;8.404;2024-03-23T10:15:38;11.70;;;3.10;;
13969;SDS011;7057;49.984;8.404;2024-03-23T10:20:42;7.67;;;2.93;;
13969;SDS011;7057;49.984;8.404;2024-03-23T10:23:18;7.30;;;2.60;;
13969;SDS011;7057;49.984;8.404;2024-03-23T10:25:44;7.80;;;2.70;;
13969;SDS011;7057;49.984;8.404;2024-03-23T10:28:11;6.87;;;2.50;;
13969;SDS011;7057;49.984;8.404;2024-03-23T10:30:37;8.77;;;2.60;;
13969;SDS011;7057;49.984;8.404;2024-03-23T10:33:06;6.83;;;2.37;;
13969;SDS011;7057;49.984;8.404;2024-03-23T10:35:33;11.17;;;2.40;;
13969;SDS011;7057;49.984;8.404;2024-03-23T10:37:59;6.33;;;1.63;;
13969;SDS011;7057;49.984;8.404;2024-03-23T10:40:25;5.23;;;1.30;;
13969;SDS011;7057;49.984;8.404;2024-03-23T10:42:53;5.13;;;1.77;;
13969;SDS011;7057;49.984;8.404;2024-03-23T10:45:19;4.40;;;1.60;;
13969;SDS011;7057;49.984;8.404;2024-03-23T10:47:45;5.13;;;1.73;;
13969;SDS011;7057;49.984;8.404;2024-03-23T10:50:12;7.93;;;2.07;;
13969;SDS011;7057;49.984;8.404;2024-03-23T10:52:38;5.53;;;2.00;;
13969;SDS011;7057;49.984;8.404;2024-03-23T10:55:05;8.50;;;2.77;;
13969;SDS011;7057;49.984;8.404;2024-03-23T10:57:37;5.97;;;2.20;;
13969;SDS011;7057;49.984;8.404;2024-03-23T11:00:05;6.33;;;2.00;;
13969;SDS011;7057;49.984;8.404;2024-03-23T11:02:31;6.53;;;2.47;;
13969;SDS011;7057;49.984;8.404;2024-03-23T11:04:57;4.87;;;2.03;;
13969;SDS011;7057;49.984;8.404;2024-03-23T11:09:50;4.13;;;1.80;;
13969;SDS011;7057;49.984;8.404;2024-03-23T11:14:50;5.40;;;2.73;;
13969;SDS011;7057;49.984;8.404;2024-03-23T11:17:20;6.07;;;2.50;;
13969;SDS011;7057;49.984;8.404;2024-03-23T11:19:52;4.80;;;2.53;;
13969;SDS011;7057;49.984;8.404;2024-03-23T11:27:45;3.83;;;1.57;;
13969;SDS011;7057;49.984;8.404;2024-03-23T11:30:12;3.93;;;2.50;;
13969;SDS011;7057;49.984;8.404;2024-03-23T11:32:38;4.37;;;2.73;;
13969;SDS011;7057;49.984;8.404;2024-03-23T11:35:05;5.00;;;2.93;;
13969;SDS011;7057;49.984;8.404;2024-03-23T11:37:31;5.57;;;2.43;;
13969;SDS011;7057;49.984;8.404;2024-03-23T11:39:57;4.90;;;2.03;;
13969;SDS011;7057;49.984;8.404;2024-03-23T11:42:23;7.13;;;2.13;;
13969;SDS011;7057;49.984;8.404;2024-03-23T11:44:49;6.20;;;2.07;;
13969;SDS011;7057;49.984;8.404;2024-03-23T11:47:15;5.60;;;2.30;;
13969;SDS011;7057;49.984;8.404;2024-03-23T11:49:41;5.67;;;2.40;;
13969;SDS011;7057;49.984;8.404;2024-03-23T11:52:07;9.40;;;2.23;;
13969;SDS011;7057;49.984;8.404;2024-03-23T11:54:33;7.13;;;2.50;;
13969;SDS011;7057;49.984;8.404;2024-03-23T11:57:00;6.87;;;2.93;;
13969;SDS011;7057;49.984;8.404;2024-03-23T11:59:39;7.23;;;2.80;;
13969;SDS011;7057;49.984;8.404;2024-03-23T12:02:09;6.93;;;3.10;;
13969;SDS011;7057;49.984;8.404;2024-03-23T12:04:36;10.23;;;3.63;;
13969;SDS011;7057;49.984;8.404;2024-03-23T12:07:12;8.87;;;3.90;;
13969;SDS011;7057;49.984;8.404;2024-03-23T12:09:38;8.00;;;3.23;;
13969;SDS011;7057;49.984;8.404;2024-03-23T12:12:13;7.03;;;3.67;;
13969;SDS011;7057;49.984;8.404;2024-03-23T12:14:42;7.93;;;3.37;;
13969;SDS011;7057;49.984;8.404;2024-03-23T12:17:12;5.97;;;3.20;;
13969;SDS011;7057;49.984;8.404;2024-03-23T12:19:38;7.70;;;2.90;;
13969;SDS011;7057;49.984;8.404;2024-03-23T12:22:05;8.23;;;2.90;;
13969;SDS011;7057;49.984;8.404;2024-03-23T12:24:32;5.10;;;2.30;;
13969;SDS011;7057;49.984;8.404;2024-03-23T12:27:01;4.97;;;2.53;;
13969;SDS011;7057;49.984;8.404;2024-03-23T12:29:28;7.40;;;2.47;;
13969;SDS011;7057;49.984;8.404;2024-03-23T12:31:56;5.17;;;2.43;;
13969;SDS011;7057;49.984;8.404;2024-03-23T12:34:22;7.43;;;2.30;;
13969;SDS011;7057;49.984;8.404;2024-03-23T12:36:48;5.27;;;2.23;;
13969;SDS011;7057;49.984;8.404;2024-03-23T12:39:14;3.20;;;2.20;;
13969;SDS011;7057;49.984;8.404;2024-03-23T12:41:40;5.67;;;2.50;;
13969;SDS011;7057;49.984;8.404;2024-03-23T12:44:06;6.40;;;2.67;;
13969;SDS011;7057;49.984;8.404;2024-03-23T12:46:34;4.43;;;2.47;;
13969;SDS011;7057;49.984;8.404;2024-03-23T12:49:00;6.47;;;2.47;;
13969;SDS011;7057;49.984;8.404;2024-03-23T12:51:26;5.10;;;2.17;;
13969;SDS011;7057;49.984;8.404;2024-03-23T12:53:52;4.83;;;1.97;;
13969;SDS011;7057;49.984;8.404;2024-03-23T12:56:18;3.43;;;1.40;;
13969;SDS011;7057;49.984;8.404;2024-03-23T12:58:44;3.77;;;0.70;;
13969;SDS011;7057;49.984;8.404;2024-03-23T13:01:13;4.27;;;1.00;;
13969;SDS011;7057;49.984;8.404;2024-03-23T13:03:39;2.03;;;0.90;;
13969;SDS011;7057;49.984;8.404;2024-03-23T13:06:06;1.90;;;1.10;;
13969;SDS011;7057;49.984;8.404;2024-03-23T13:08:33;5.63;;;1.30;;
13969;SDS011;7057;49.984;8.404;2024-03-23T13:10:59;1.93;;;1.00;;
13969;SDS011;7057;49.984;8.404;2024-03-23T13:13:25;1.43;;;0.87;;
13969;SDS011;7057;49.984;8.404;2024-03-23T13:15:51;2.40;;;1.23;;
13969;SDS011;7057;49.984;8.404;2024-03-23T13:18:17;1.73;;;1.23;;
13969;SDS011;7057;49.984;8.404;2024-03-23T13:20:43;3.20;;;1.20;;
13969;SDS011;7057;49.984;8.404;2024-03-23T13:23:09;1.90;;;1.30;;
13969;SDS011;7057;49.984;8.404;2024-03-23T13:25:35;1.67;;;1.30;;
13969;SDS011;7057;49.984;8.404;2024-03-23T13:28:02;1.97;;;1.30;;
13969;SDS011;7057;49.984;8.404;2024-03-23T13:30:28;1.60;;;1.03;;
13969;SDS011;7057;49.984;8.404;2024-03-23T13:32:54;2.00;;;1.20;;
13969;SDS011;7057;49.984;8.404;2024-03-23T13:35:21;1.80;;;1.20;;
13969;SDS011;7057;49.984;8.404;2024-03-23T13:37:47;1.73;;;1.07;;
13969;SDS011;7057;49.984;8.404;2024-03-23T13:40:13;2.53;;;1.00;;
13969;SDS011;7057;49.984;8.404;2024-03-23T13:42:39;2.70;;;1.10;;
13969;SDS011;7057;49.984;8.404;2024-03-23T13:45:05;1.70;;;0.97;;
13969;SDS011;7057;49.984;8.404;2024-03-23T13:47:31;1.10;;;1.00;;
13969;SDS011;7057;49.984;8.404;2024-03-23T13:49:57;1.70;;;0.93;;
13969;SDS011;7057;49.984;8.404;2024-03-23T13:52:24;1.37;;;0.90;;
13969;SDS011;7057;49.984;8.404;2024-03-23T13:54:51;2.40;;;1.10;;
13969;SDS011;7057;49.984;8.404;2024-03-23T13:57:17;2.37;;;1.10;;
13969;SDS011;7057;49.984;8.404;2024-03-23T13:59:46;1.70;;;1.10;;
13969;SDS011;7057;49.984;8.404;2024-03-23T14:02:13;2.13;;;1.20;;
13969;SDS011;7057;49.984;8.404;2024-03-23T14:04:40;1.97;;;1.03;;
13969;SDS011;7057;49.984;8.404;2024-03-23T14:07:05;2.33;;;1.20;;
13969;SDS011;7057;49.984;8.404;2024-03-23T14:09:34;2.27;;;1.10;;
13969;SDS011;7057;49.984;8.404;2024-03-23T14:12:00;2.00;;;1.00;;
13969;SDS011;7057;49.984;8.404;2024-03-23T14:14:26;2.50;;;1.10;;
13969;SDS011;7057;49.984;8.404;2024-03-23T14:16:52;1.60;;;1.03;;
13969;SDS011;7057;49.984;8.404;2024-03-23T14:19:18;1.80;;;1.30;;
13969;SDS011;7057;49.984;8.404;2024-03-23T14:21:44;3.23;;;1.27;;
13969;SDS011;7057;49.984;8.404;2024-03-23T14:24:11;1.57;;;0.90;;
13969;SDS011;7057;49.984;8.404;2024-03-23T14:26:37;2.53;;;1.00;;
13969;SDS011;7057;49.984;8.404;2024-03-23T14:29:03;2.30;;;0.97;;
13969;SDS011;7057;49.984;8.404;2024-03-23T14:31:29;1.67;;;1.20;;
13969;SDS011;7057;49.984;8.404;2024-03-23T14:33:55;2.43;;;1.10;;
13969;SDS011;7057;49.984;8.404;2024-03-23T14:36:21;1.80;;;1.07;;
13969;SDS011;7057;49.984;8.404;2024-03-23T14:38:48;1.37;;;1.00;;
13969;SDS011;7057;49.984;8.404;2024-03-23T14:41:14;3.67;;;1.20;;
13969;SDS011;7057;49.984;8.404;2024-03-23T14:43:40;4.50;;;1.20;;
13969;SDS011;7057;49.984;8.404;2024-03-23T14:48:41;3.07;;;1.00;;
13969;SDS011;7057;49.984;8.404;2024-03-23T14:51:08;3.87;;;1.33;;
13969;SDS011;7057;49.984;8.404;2024-03-23T14:53:35;2.13;;;1.37;;
13969;SDS011;7057;49.984;8.404;2024-03-23T14:56:01;2.77;;;1.60;;
13969;SDS011;7057;49.984;8.404;2024-03-23T14:58:28;2.60;;;1.30;;
13969;SDS011;7057;49.984;8.404;2024-03-23T15:01:04;2.27;;;1.13;;
13969;SDS011;7057;49.984;8.404;2024-03-23T15:03:30;3.27;;;1.40;;
13969;SDS011;7057;49.984;8.404;2024-03-23T15:05:57;2.53;;;1.37;;
13969;SDS011;7057;49.984;8.404;2024-03-23T15:08:23;2.17;;;1.30;;
13969;SDS011;7057;49.984;8.404;2024-03-23T15:10:49;2.30;;;1.30;;
13969;SDS011;7057;49.984;8.404;2024-03-23T15:13:16;3.23;;;1.43;;
13969;SDS011;7057;49.984;8.404;2024-03-23T15:15:42;2.10;;;1.20;;
13969;SDS011;7057;49.984;8.404;2024-03-23T15:18:12;3.53;;;1.27;;
13969;SDS011;7057;49.984;8.404;2024-03-23T15:20:39;6.70;;;1.77;;
13969;SDS011;7057;49.984;8.404;2024-03-23T15:23:05;3.33;;;1.60;;
13969;SDS011;7057;49.984;8.404;2024-03-23T15:25:31;4.33;;;1.43;;
13969;SDS011;7057;49.984;8.404;2024-03-23T15:27:58;4.00;;;1.40;;
13969;SDS011;7057;49.984;8.404;2024-03-23T15:30:25;4.20;;;1.33;;
13969;SDS011;7057;49.984;8.404;2024-03-23T15:32:51;2.70;;;1.30;;
13969;SDS011;7057;49.984;8.404;2024-03-23T15:35:17;2.23;;;1.10;;
13969;SDS011;7057;49.984;8.404;2024-03-23T15:37:44;2.00;;;0.90;;
13969;SDS011;7057;49.984;8.404;2024-03-23T15:40:10;1.33;;;1.00;;
13969;SDS011;7057;49.984;8.404;2024-03-23T15:42:38;3.07;;;1.17;;
13969;SDS011;7057;49.984;8.404;2024-03-23T15:45:05;1.97;;;1.00;;
13969;SDS011;7057;49.984;8.404;2024-03-23T15:47:32;1.20;;;0.90;;
13969;SDS011;7057;49.984;8.404;2024-03-23T15:49:58;2.13;;;1.23;;
13969;SDS011;7057;49.984;8.404;2024-03-23T15:52:24;2.33;;;1.10;;
13969;SDS011;7057;49.984;8.404;2024-03-23T15:54:50;3.30;;;1.33;;
13969;SDS011;7057;49.984;8.404;2024-03-23T15:57:17;2.53;;;1.50;;
13969;SDS011;7057;49.984;8.404;2024-03-23T15:59:43;1.73;;;1.17;;
13969;SDS011;7057;49.984;8.404;2024-03-23T16:02:09;7.17;;;1.60;;
13969;SDS011;7057;49.984;8.404;2024-03-23T16:04:36;2.00;;;1.10;;